createdAt,value
2019-03-29T00:02:03.700Z,71.79
2019-03-29T00:04:33.788Z,71.82
2019-03-29T00:07:04.066Z,72.00
2019-03-29T00:09:34.415Z,72.47
2019-03-29T00:12:05.026Z,72.81
2019-03-29T00:14:35.321Z,72.78
2019-03-29T00:17:05.408Z,72.62
2019-03-29T00:19:35.477Z,72.70
2019-03-29T02:49:27.282Z,83.50
2019-03-29T02:51:57.356Z,82.81
2019-03-29T02:54:27.436Z,82.68
2019-03-29T02:56:57.518Z,82.40
2019-03-29T02:59:27.571Z,82.25
2019-03-29T03:01:57.648Z,81.99
2019-03-29T03:04:27.837Z,82.11
2019-03-29T03:06:57.942Z,81.33
2019-03-29T03:09:27.990Z,80.99
2019-03-29T03:11:58.106Z,80.82
2019-03-29T03:14:28.195Z,81.35
2019-03-29T03:16:58.268Z,81.63
2019-03-29T03:19:28.340Z,81.55
2019-03-29T03:21:58.412Z,81.78
2019-03-29T03:24:28.519Z,81.93
2019-03-29T03:26:58.603Z,82.39
2019-03-29T03:29:28.691Z,82.22
2019-03-29T03:31:58.753Z,82.21
2019-03-29T03:34:28.867Z,82.72
2019-03-29T03:36:58.915Z,82.70
2019-03-29T03:39:32.329Z,82.52
2019-03-29T03:42:00.868Z,82.43
2019-03-29T03:44:31.005Z,82.38
2019-03-29T03:47:01.091Z,82.64
2019-03-29T03:49:31.173Z,82.97
2019-03-29T03:52:01.374Z,83.19
2019-03-29T03:54:31.427Z,83.23
2019-03-29T03:57:01.528Z,83.37
2019-03-29T03:59:31.613Z,82.63
2019-03-29T04:02:01.686Z,82.51
2019-03-29T04:04:31.882Z,82.49
2019-03-29T04:07:01.941Z,82.80
2019-03-29T04:09:48.598Z,82.99
2019-03-29T04:12:03.891Z,83.23
2019-03-29T04:14:34.035Z,82.90
2019-03-29T04:17:04.116Z,83.06
2019-03-29T04:19:34.192Z,82.90
2019-03-29T04:22:04.288Z,83.01
2019-03-29T04:24:34.390Z,82.87
2019-03-29T04:27:04.484Z,82.44
2019-03-29T04:29:34.541Z,82.12
2019-03-29T04:32:04.625Z,82.28
2019-03-29T04:34:34.683Z,82.50
2019-03-29T04:37:04.887Z,82.26
2019-03-29T04:39:35.168Z,82.28
2019-03-29T04:42:05.262Z,82.20
2019-03-29T04:44:35.348Z,81.87
2019-03-29T04:47:05.458Z,82.11
2019-03-29T04:49:35.746Z,81.99
2019-03-29T04:52:05.961Z,81.91
2019-03-29T04:54:36.040Z,81.71
2019-03-29T04:57:06.107Z,81.37
2019-03-29T04:59:36.189Z,80.93
2019-03-29T05:02:06.289Z,80.14
2019-03-29T05:04:36.387Z,79.64
2019-03-29T05:07:06.464Z,78.58
2019-03-29T05:09:36.571Z,77.21
2019-03-29T05:12:06.668Z,76.00
2019-03-29T05:14:36.762Z,75.33
2019-03-29T05:17:06.844Z,74.34
2019-03-29T05:19:36.943Z,73.63
2019-03-29T05:22:07.026Z,72.68
2019-03-29T05:24:37.104Z,72.98
2019-03-29T05:27:07.205Z,73.56
2019-03-29T05:29:37.277Z,73.25
2019-03-29T05:32:07.344Z,72.99
2019-03-29T05:34:37.435Z,72.89
2019-03-29T05:37:07.590Z,72.04
2019-03-29T05:39:37.644Z,72.18
2019-03-29T05:42:07.727Z,72.62
2019-03-29T05:44:40.712Z,73.24
2019-03-29T05:47:09.618Z,74.89
2019-03-29T05:49:39.699Z,75.66
2019-03-29T05:52:09.799Z,76.62
2019-03-29T05:54:39.886Z,67.28
2019-03-29T05:57:09.997Z,58.11
2019-03-29T05:59:40.170Z,52.72
2019-03-29T06:02:10.269Z,47.88
2019-03-29T06:04:40.347Z,45.82
2019-03-29T06:07:10.490Z,42.95
2019-03-29T06:09:40.564Z,42.88
2019-03-29T06:12:10.704Z,42.77
2019-03-29T06:14:40.811Z,43.79
2019-03-29T06:17:10.937Z,42.19
2019-03-29T06:19:41.001Z,41.16
2019-03-29T06:22:11.081Z,40.31
2019-03-29T06:24:41.187Z,40.12
2019-03-29T06:27:11.287Z,40.30
2019-03-29T06:29:41.370Z,39.41
2019-03-29T06:32:11.451Z,38.70
2019-03-29T06:34:41.560Z,38.05
2019-03-29T06:37:11.653Z,38.58
2019-03-29T06:39:41.833Z,39.12
2019-03-29T06:42:11.925Z,35.45
2019-03-29T06:44:44.354Z,33.08
2019-03-29T06:47:13.821Z,32.53
2019-03-29T06:49:43.971Z,33.24
2019-03-29T06:52:14.056Z,37.63
2019-03-29T06:54:44.136Z,38.15
2019-03-29T06:57:14.222Z,38.33
2019-03-29T06:59:44.335Z,37.05
2019-03-29T07:02:14.436Z,36.70
2019-03-29T07:04:44.502Z,37.09
2019-03-29T07:07:14.587Z,37.09
2019-03-29T07:09:44.702Z,38.80
2019-03-29T07:12:14.837Z,38.13
2019-03-29T07:14:44.906Z,39.47
2019-03-29T07:17:14.985Z,38.28
2019-03-29T07:19:45.067Z,38.52
2019-03-29T07:22:15.159Z,37.70
2019-03-29T07:24:45.250Z,37.68
2019-03-29T07:27:15.330Z,37.83
2019-03-29T07:29:45.421Z,37.32
2019-03-29T07:32:15.748Z,37.45
2019-03-29T07:34:49.040Z,37.54
2019-03-29T07:37:17.644Z,38.66
2019-03-29T07:39:47.747Z,39.66
2019-03-29T07:42:17.884Z,38.93
2019-03-29T07:44:48.002Z,39.73
2019-03-29T07:47:18.087Z,38.58
2019-03-29T07:49:48.224Z,37.97
2019-03-29T07:52:18.308Z,37.52
2019-03-29T07:54:48.407Z,36.53
2019-03-29T07:57:18.522Z,36.47
2019-03-29T07:59:48.621Z,37.25
2019-03-29T08:02:18.717Z,37.07
2019-03-29T08:04:48.855Z,37.57
2019-03-29T08:07:27.187Z,38.03
2019-03-29T08:09:50.792Z,37.73
2019-03-29T08:12:22.204Z,36.37
2019-03-29T08:14:52.589Z,37.11
2019-03-29T08:17:22.916Z,36.65
2019-03-29T08:20:19.059Z,36.88
2019-03-29T08:22:24.827Z,37.05
2019-03-29T08:24:54.882Z,36.37
2019-03-29T08:27:24.971Z,36.36
2019-03-29T08:29:55.149Z,36.40
2019-03-29T08:32:25.243Z,37.07
2019-03-29T08:34:55.333Z,39.83
2019-03-29T08:37:25.455Z,38.29
2019-03-29T08:39:56.544Z,38.33
2019-03-29T08:42:26.922Z,38.59
2019-03-29T08:44:57.009Z,38.72
2019-03-29T08:47:27.116Z,38.22
2019-03-29T08:49:57.181Z,41.06
2019-03-29T08:52:27.250Z,38.25
2019-03-29T08:54:57.340Z,38.29
2019-03-29T08:57:27.445Z,37.94
2019-03-29T08:59:57.508Z,37.93
2019-03-29T09:02:27.570Z,36.83
2019-03-29T09:04:57.674Z,37.62
2019-03-29T09:07:28.170Z,37.06
2019-03-29T09:09:58.644Z,36.74
2019-03-29T09:12:28.690Z,37.38
2019-03-29T09:14:58.809Z,36.79
2019-03-29T09:17:28.889Z,35.96
2019-03-29T09:19:58.977Z,34.68
2019-03-29T09:22:29.080Z,35.29
2019-03-29T09:24:59.158Z,35.24
2019-03-29T09:27:31.808Z,35.41
2019-03-29T09:30:01.046Z,36.00
2019-03-29T09:32:31.116Z,37.07
2019-03-29T09:35:01.158Z,37.15
2019-03-29T09:37:31.225Z,36.96
2019-03-29T09:40:01.282Z,37.67
2019-03-29T09:42:31.357Z,37.41
2019-03-29T09:45:01.429Z,36.66
2019-03-29T09:47:37.037Z,36.46
2019-03-29T09:50:03.286Z,37.20
2019-03-29T09:52:33.339Z,36.81
2019-03-29T09:55:03.431Z,36.99
2019-03-29T09:57:37.974Z,37.39
2019-03-29T10:00:18.101Z,35.66
2019-03-29T10:02:37.608Z,35.75
2019-03-29T10:05:07.664Z,34.45
2019-03-29T10:07:37.743Z,35.78
2019-03-29T10:10:07.839Z,35.02
2019-03-29T10:12:43.803Z,36.20
2019-03-29T10:15:09.778Z,36.41
2019-03-29T10:17:39.831Z,36.42
2019-03-29T10:20:09.996Z,37.36
2019-03-29T10:22:40.061Z,37.56
2019-03-29T10:25:19.213Z,38.12
2019-03-29T10:27:42.177Z,37.41
2019-03-29T10:30:12.285Z,37.11
2019-03-29T10:32:42.358Z,37.19
2019-03-29T10:35:12.421Z,37.61
2019-03-29T10:37:42.483Z,37.86
2019-03-29T10:40:12.538Z,36.99
2019-03-29T10:42:56.721Z,36.97
2019-03-29T10:45:14.420Z,36.16
2019-03-29T10:47:44.488Z,36.43
2019-03-29T10:50:14.550Z,35.75
2019-03-29T10:52:44.629Z,35.63
2019-03-29T10:55:14.704Z,34.53
2019-03-29T10:57:44.773Z,34.29
2019-03-29T11:00:21.465Z,33.18
2019-03-29T11:02:50.186Z,32.64
2019-03-29T11:05:20.289Z,33.02
2019-03-29T11:07:50.348Z,31.88
2019-03-29T11:10:32.713Z,32.22
2019-03-29T11:13:12.477Z,32.88
2019-03-29T11:15:38.344Z,33.73
2019-03-29T11:18:08.519Z,35.03
2019-03-29T11:20:38.685Z,34.86
2019-03-29T11:23:08.782Z,35.81
2019-03-29T11:25:38.886Z,36.68
2019-03-29T11:28:08.977Z,36.26
2019-03-29T11:30:42.482Z,36.40
2019-03-29T11:33:11.051Z,35.87
2019-03-29T11:35:41.127Z,36.29
2019-03-29T11:38:11.186Z,35.81
2019-03-29T11:40:41.271Z,36.06
2019-03-29T11:43:25.725Z,36.17
2019-03-29T11:45:43.249Z,36.18
2019-03-29T11:48:13.390Z,36.40
2019-03-29T11:50:43.456Z,36.37
2019-03-29T11:53:13.520Z,36.17
2019-03-29T11:55:43.605Z,35.66
2019-03-29T11:58:13.663Z,34.89
2019-03-29T12:00:43.737Z,36.47
2019-03-29T12:03:13.813Z,37.24
2019-03-29T12:05:43.906Z,37.25
2019-03-29T12:08:13.959Z,39.04
2019-03-29T12:10:44.040Z,37.37
2019-03-29T12:13:14.084Z,35.63
2019-03-29T12:15:44.333Z,32.89
2019-03-29T12:18:14.405Z,33.34
2019-03-29T12:20:44.476Z,35.60
2019-03-29T12:23:14.529Z,36.55
2019-03-29T12:25:44.589Z,36.58
2019-03-29T12:28:14.660Z,36.52
2019-03-29T12:30:44.783Z,34.04
2019-03-29T12:33:14.853Z,35.10
2019-03-29T12:35:44.894Z,34.93
2019-03-29T12:38:14.969Z,35.73
2019-03-29T12:40:45.424Z,36.37
2019-03-29T12:43:15.610Z,36.73
2019-03-29T12:45:45.675Z,37.19
2019-03-29T12:48:15.770Z,37.63
2019-03-29T12:50:45.827Z,37.00
2019-03-29T12:53:15.908Z,37.31
2019-03-29T12:55:46.053Z,37.52
2019-03-29T12:58:16.166Z,38.08
2019-03-29T13:00:46.223Z,38.72
2019-03-29T13:03:16.421Z,38.36
2019-03-29T13:05:46.702Z,38.44
2019-03-29T13:08:16.766Z,38.09
2019-03-29T13:10:46.974Z,38.86
2019-03-29T13:13:17.044Z,38.98
2019-03-29T13:15:47.111Z,38.77
2019-03-29T13:18:17.219Z,37.64
2019-03-29T13:20:47.414Z,37.45
2019-03-29T13:23:17.481Z,36.96
2019-03-29T13:25:47.541Z,35.91
2019-03-29T13:28:17.643Z,35.63
2019-03-29T13:30:47.707Z,36.09
2019-03-29T13:33:20.519Z,36.70
2019-03-29T13:35:49.595Z,37.10
2019-03-29T13:38:20.716Z,38.67
2019-03-29T13:40:50.932Z,39.50
2019-03-29T13:43:21.043Z,39.14
2019-03-29T13:45:51.100Z,40.01
2019-03-29T13:48:21.191Z,39.32
2019-03-29T13:50:51.307Z,40.22
2019-03-29T13:53:21.402Z,40.76
2019-03-29T13:55:51.490Z,40.61
2019-03-29T13:58:21.635Z,41.23
2019-03-29T14:00:51.733Z,41.48
2019-03-29T14:03:21.835Z,40.93
2019-03-29T14:05:51.932Z,40.91
2019-03-29T14:08:22.007Z,40.90
2019-03-29T14:10:52.108Z,41.35
2019-03-29T14:13:22.198Z,41.28
2019-03-29T14:15:52.343Z,41.30
2019-03-29T14:18:22.418Z,41.73
2019-03-29T14:20:52.501Z,41.32
2019-03-29T14:23:22.591Z,41.08
2019-03-29T14:25:52.665Z,39.63
2019-03-29T14:28:22.779Z,40.17
2019-03-29T14:30:52.861Z,40.52
2019-03-29T14:33:22.959Z,40.88
2019-03-29T14:35:53.024Z,40.79
2019-03-29T14:38:23.226Z,41.04
2019-03-29T14:40:53.325Z,41.15
2019-03-29T14:43:23.427Z,40.87
2019-03-29T14:45:53.511Z,41.17
2019-03-29T14:48:23.626Z,41.97
2019-03-29T14:50:53.714Z,42.00
2019-03-29T14:53:23.824Z,42.26
2019-03-29T14:55:53.901Z,43.23
2019-03-29T14:58:24.006Z,43.02
2019-03-29T15:00:54.054Z,43.18
2019-03-29T15:03:24.200Z,43.01
2019-03-29T15:05:54.263Z,42.91
2019-03-29T15:08:24.389Z,43.03
2019-03-29T15:10:54.554Z,43.46
2019-03-29T15:13:24.638Z,44.12
2019-03-29T15:15:54.749Z,44.29
2019-03-29T15:18:24.852Z,45.13
2019-03-29T15:20:54.936Z,44.46
2019-03-29T15:23:25.032Z,44.35
2019-03-29T15:25:55.155Z,45.11
2019-03-29T15:28:25.286Z,45.51
2019-03-29T15:30:55.426Z,44.98
2019-03-29T15:33:25.503Z,45.03
2019-03-29T15:35:55.609Z,45.44
2019-03-29T15:38:25.753Z,45.15
2019-03-29T15:40:55.830Z,45.63
2019-03-29T15:43:26.087Z,45.45
2019-03-29T15:45:56.183Z,46.67
2019-03-29T15:48:26.358Z,46.59
2019-03-29T15:50:56.523Z,46.76
2019-03-29T15:53:26.623Z,47.53
2019-03-29T15:55:56.718Z,47.19
2019-03-29T15:58:26.803Z,47.32
2019-03-29T16:00:56.868Z,48.31
2019-03-29T16:03:26.953Z,47.97
2019-03-29T16:05:57.073Z,47.93
2019-03-29T16:08:27.149Z,48.37
2019-03-29T16:10:57.251Z,48.74
2019-03-29T16:13:27.359Z,49.28
2019-03-29T16:15:57.498Z,49.18
2019-03-29T16:18:27.596Z,49.89
2019-03-29T16:20:57.720Z,50.39
2019-03-29T16:23:27.814Z,50.47
2019-03-29T16:25:57.974Z,50.67
2019-03-29T16:28:28.093Z,50.62
2019-03-29T16:30:58.211Z,51.35
2019-03-29T16:33:28.571Z,50.98
2019-03-29T16:35:58.815Z,50.79
2019-03-29T16:38:28.919Z,51.48
2019-03-29T16:40:59.007Z,51.64
2019-03-29T16:43:29.087Z,51.72
2019-03-29T16:45:59.181Z,52.51
2019-03-29T16:48:29.333Z,52.70
2019-03-29T16:50:59.525Z,53.07
2019-03-29T16:53:29.629Z,53.46
2019-03-29T16:55:59.698Z,53.03
2019-03-29T16:58:29.789Z,53.68
2019-03-29T17:00:59.960Z,53.71
2019-03-29T17:03:30.166Z,54.26
2019-03-29T17:06:00.375Z,54.56
2019-03-29T17:08:30.542Z,55.10
2019-03-29T17:11:00.694Z,55.20
2019-03-29T17:13:30.799Z,55.09
2019-03-29T17:16:02.220Z,55.74
2019-03-29T17:18:32.551Z,55.91
2019-03-29T17:21:02.829Z,55.80
2019-03-29T17:23:32.950Z,56.26
2019-03-29T17:26:03.072Z,57.02
2019-03-29T17:28:33.267Z,57.53
2019-03-29T17:31:05.210Z,57.47
2019-03-29T17:33:35.314Z,58.08
2019-03-29T17:36:05.436Z,58.40
2019-03-29T17:38:35.502Z,59.01
2019-03-29T17:41:05.601Z,59.73
2019-03-29T17:43:35.677Z,59.33
2019-03-29T17:46:16.080Z,59.90
2019-03-29T17:48:38.776Z,60.70
2019-03-29T17:51:11.719Z,61.38
2019-03-29T17:53:41.962Z,61.66
2019-03-29T17:56:12.272Z,61.98
2019-03-29T17:58:42.373Z,62.64
2019-03-29T18:01:12.537Z,63.00
2019-03-29T18:03:42.970Z,63.68
2019-03-29T18:06:13.108Z,64.17
2019-03-29T18:08:43.250Z,64.83
2019-03-29T18:11:13.385Z,65.41
2019-03-29T18:13:43.511Z,65.69
2019-03-29T18:16:14.941Z,65.43
2019-03-29T18:18:45.298Z,65.38
2019-03-29T18:21:15.394Z,65.39
2019-03-29T18:23:45.597Z,65.32
2019-03-29T18:26:15.672Z,65.74
2019-03-29T18:28:45.807Z,65.67
2019-03-29T18:31:16.111Z,65.48
2019-03-29T18:33:46.198Z,65.20
2019-03-29T18:36:16.360Z,64.94
2019-03-29T18:38:47.160Z,65.01
2019-03-29T18:41:17.339Z,65.14
2019-03-29T18:43:47.500Z,65.23
2019-03-29T18:46:17.666Z,65.46
2019-03-29T18:48:47.829Z,65.60
2019-03-29T18:51:17.975Z,65.09
2019-03-29T18:53:48.049Z,65.05
2019-03-29T18:56:18.128Z,65.04
2019-03-29T18:58:48.321Z,64.66
2019-03-29T19:01:18.419Z,64.85
2019-03-29T19:03:48.481Z,64.41
2019-03-29T19:06:18.585Z,64.20
2019-03-29T19:08:48.682Z,63.77
2019-03-29T19:11:18.796Z,64.11
2019-03-29T19:13:48.886Z,63.83
2019-03-29T19:16:18.959Z,63.91
2019-03-29T19:18:49.159Z,63.71
2019-03-29T19:21:19.318Z,63.78
2019-03-29T19:23:49.430Z,63.73
2019-03-29T19:26:19.528Z,63.60
2019-03-29T19:28:49.732Z,63.53
2019-03-29T19:31:20.443Z,63.61
2019-03-29T19:33:50.797Z,64.27
2019-03-29T19:36:22.779Z,63.67
2019-03-29T19:38:52.997Z,63.78
2019-03-29T19:41:23.130Z,64.19
2019-03-29T19:43:53.213Z,64.13
2019-03-29T19:46:23.417Z,64.44
2019-03-29T19:48:53.507Z,64.69
2019-03-29T19:51:23.684Z,64.85
2019-03-29T19:54:06.706Z,64.95
2019-03-29T19:56:25.635Z,65.38
2019-03-29T19:58:55.782Z,65.26
2019-03-29T20:01:25.944Z,65.25
2019-03-29T20:03:56.097Z,64.86
2019-03-29T20:06:26.323Z,64.86
2019-03-29T20:08:56.522Z,64.74
2019-03-29T20:11:26.654Z,65.32
2019-03-29T20:13:56.824Z,66.10
2019-03-29T20:16:26.953Z,65.83
2019-03-29T20:18:57.068Z,66.61
2019-03-29T20:21:27.314Z,66.59
2019-03-29T20:23:57.530Z,66.07
2019-03-29T20:26:27.688Z,66.16
2019-03-29T20:28:57.821Z,65.74
2019-03-29T20:31:27.984Z,65.28
2019-03-29T20:33:58.279Z,65.09
2019-03-29T20:36:28.366Z,65.04
2019-03-29T20:38:58.435Z,64.37
2019-03-29T20:41:28.579Z,64.34
2019-03-29T20:43:58.696Z,63.97
2019-03-29T20:46:28.940Z,63.69
2019-03-29T20:48:59.261Z,63.47
2019-03-29T20:51:29.435Z,63.97
2019-03-29T20:53:59.553Z,64.09
2019-03-29T20:56:29.676Z,64.48
2019-03-29T20:58:59.781Z,64.00
2019-03-29T21:01:29.909Z,63.89
2019-03-29T21:04:00.090Z,64.12
2019-03-29T21:06:30.175Z,64.32
2019-03-29T21:09:00.307Z,63.98
2019-03-29T21:11:30.437Z,63.97
2019-03-29T21:14:00.612Z,64.07
2019-03-29T21:16:30.679Z,64.41
2019-03-29T21:19:00.813Z,65.03
2019-03-29T21:21:30.951Z,65.57
2019-03-29T21:24:01.070Z,65.27
2019-03-29T21:26:31.134Z,65.31
2019-03-29T21:29:02.225Z,65.16
2019-03-29T21:31:32.356Z,64.88
2019-03-29T21:34:02.460Z,64.63
2019-03-29T21:36:32.571Z,64.23
2019-03-29T21:39:02.746Z,64.25
2019-03-29T21:41:32.879Z,64.65
2019-03-29T21:44:03.937Z,64.76
2019-03-29T21:46:34.008Z,64.48
2019-03-29T21:49:04.101Z,64.21
2019-03-29T21:51:34.247Z,64.42
2019-03-29T21:54:04.393Z,64.16
2019-03-29T21:56:34.586Z,64.10
2019-03-29T21:59:05.267Z,63.64
2019-03-29T22:01:35.646Z,62.98
2019-03-29T22:04:06.079Z,63.59
2019-03-29T22:06:36.209Z,64.04
2019-03-29T22:09:08.443Z,64.59
2019-03-29T22:11:38.511Z,64.00
2019-03-29T22:14:08.641Z,64.40
2019-03-29T22:16:38.733Z,64.75
2019-03-29T22:19:08.845Z,64.46
2019-03-29T22:21:38.930Z,63.65
2019-03-29T22:24:09.061Z,63.21
2019-03-29T22:26:39.148Z,64.24
2019-03-29T22:29:09.232Z,64.00
2019-03-29T22:32:17.838Z,62.92
2019-03-29T22:34:56.883Z,63.11
2019-03-29T22:37:26.975Z,62.77
2019-03-29T22:39:57.053Z,61.83
2019-03-29T22:42:27.148Z,62.34
2019-03-29T22:44:57.295Z,62.52
2019-03-29T22:47:27.380Z,62.04
2019-03-29T22:49:57.470Z,60.86
2019-03-29T22:52:27.568Z,62.37
2019-03-29T22:54:57.642Z,61.45
2019-03-29T22:57:32.481Z,61.82
2019-03-29T23:00:05.900Z,61.52
2019-03-29T23:02:36.075Z,62.12
2019-03-29T23:05:06.683Z,63.17
2019-03-29T23:07:36.842Z,63.54
2019-03-29T23:10:07.246Z,63.43
2019-03-29T23:12:37.425Z,62.94
2019-03-29T23:15:07.576Z,64.36
2019-03-29T23:17:37.674Z,62.98
2019-03-29T23:20:07.776Z,63.52
2019-03-29T23:22:37.853Z,64.79
2019-03-29T23:25:07.928Z,65.13
2019-03-29T23:27:38.011Z,66.26
2019-03-29T23:30:08.164Z,66.61
2019-03-29T23:32:38.249Z,66.59
2019-03-29T23:35:08.824Z,67.09
2019-03-29T23:37:38.951Z,66.94
2019-03-29T23:40:09.042Z,67.32
2019-03-29T23:42:39.169Z,68.02
2019-03-29T23:45:09.259Z,67.53
2019-03-29T23:47:39.333Z,69.08
2019-03-29T23:50:09.456Z,69.42
2019-03-29T23:52:39.547Z,69.52
2019-03-29T23:55:09.626Z,69.41
2019-03-29T23:57:39.725Z,69.77
